Time;durP1;ratioP1;P1;durP2;ratioP2;P2;SDS_P1;SDS_P2;PMS_P1;PMS_P2;Temp;Humidity;BMP_temperature;BMP_pressure;BME280_temperature;BME280_humidity;BME280_pressure;Samples;Min_cycle;Max_cycle;Signal;HPM_P1;HPM_P2
2022/04/24 00:00:15;;;;;;;8.33;7.47;;;;;;;8.96;62.38;100563.41;5077963;28;20173;-73
2022/04/24 00:02:41;;;;;;;8.40;7.50;;;;;;;8.57;63.56;100570.66;5077755;28;20269;-74
2022/04/24 00:05:06;;;;;;;8.33;7.53;;;;;;;9.35;62.81;100553.47;5078327;28;20394;-73
2022/04/24 00:07:31;;;;;;;8.97;8.03;;;;;;;8.34;65.06;100562.47;5077529;28;20181;-73
2022/04/24 00:09:57;;;;;;;8.30;7.40;;;;;;;8.21;65.39;100555.34;5077939;28;20161;-73
2022/04/24 00:12:22;;;;;;;8.43;7.30;;;;;;;8.88;64.31;100552.91;5078009;28;20244;-72
2022/04/24 00:14:48;;;;;;;8.93;7.73;;;;;;;8.80;64.54;100554.53;5077748;28;20166;-71
2022/04/24 00:17:16;;;;;;;10.23;7.30;;;;;;;8.65;65.46;100559.53;5079890;28;20590;-71
2022/04/24 00:19:42;;;;;;;8.50;7.70;;;;;;;8.52;65.60;100558.44;5081782;28;20442;-72
2022/04/24 00:22:07;;;;;;;11.23;7.40;;;;;;;8.69;65.25;100562.19;5081252;28;20858;-71
2022/04/24 00:24:32;;;;;;;10.33;7.90;;;;;;;9.21;64.44;100554.19;5081446;28;20415;-71
2022/04/24 00:26:58;;;;;;;11.67;7.87;;;;;;;8.67;65.43;100555.22;5082035;28;20161;-72
2022/04/24 00:29:24;;;;;;;8.77;7.93;;;;;;;8.46;66.13;100563.53;5081287;28;20176;-72
2022/04/24 00:31:49;;;;;;;12.80;8.10;;;;;;;8.75;64.43;100553.59;5063730;28;20407;-72
2022/04/24 00:34:14;;;;;;;8.83;7.73;;;;;;;8.36;66.46;100562.50;5081860;28;20469;-72
2022/04/24 00:36:40;;;;;;;8.07;7.30;;;;;;;8.40;66.29;100562.59;5081073;28;20233;-71
2022/04/24 00:39:05;;;;;;;7.80;7.10;;;;;;;8.01;67.33;100567.97;5080908;28;20290;-72
2022/04/24 00:41:30;;;;;;;9.97;7.57;;;;;;;9.10;65.64;100556.66;5081456;28;20165;-72
2022/04/24 00:43:56;;;;;;;10.00;6.97;;;;;;;8.10;67.46;100562.94;5080909;28;20580;-71
2022/04/24 00:46:43;;;;;;;9.90;7.40;;;;;;;8.16;67.39;100562.16;5080072;28;20168;-72
2022/04/24 00:49:10;;;;;;;8.37;6.70;;;;;;;8.75;65.94;100554.47;5080173;28;20199;-71
2022/04/24 00:51:37;;;;;;;8.23;7.43;;;;;;;8.13;67.25;100557.81;5080713;28;20418;-72
2022/04/24 00:54:07;;;;;;;8.33;7.53;;;;;;;8.46;67.43;100555.75;5080293;28;20411;-72
2022/04/24 00:56:33;;;;;;;6.33;5.73;;;;;;;7.73;67.51;100554.53;5080937;28;20408;-74
2022/04/24 00:59:02;;;;;;;9.40;7.07;;;;;;;8.12;67.30;100561.28;5081126;28;20549;-72
2022/04/24 01:01:28;;;;;;;7.70;6.87;;;;;;;8.06;66.84;100558.56;5080501;28;20226;-72
2022/04/24 01:03:55;;;;;;;8.77;7.30;;;;;;;8.05;67.17;100560.28;5080866;28;20801;-70
2022/04/24 01:06:21;;;;;;;10.70;7.20;;;;;;;7.85;67.96;100557.34;5080567;28;20199;-72
2022/04/24 01:08:46;;;;;;;7.50;6.80;;;;;;;8.05;67.51;100554.19;5080959;28;20456;-72
2022/04/24 01:11:11;;;;;;;7.23;6.53;;;;;;;8.09;66.23;100558.59;5080692;28;20176;-73
2022/04/24 01:13:36;;;;;;;12.27;6.77;;;;;;;8.17;67.36;100561.34;5081265;28;20161;-73
2022/04/24 01:16:02;;;;;;;7.90;6.70;;;;;;;7.78;67.37;100552.00;5080496;28;20168;-72
2022/04/24 01:18:29;;;;;;;7.60;6.80;;;;;;;8.09;66.70;100543.91;5080419;28;20205;-73
2022/04/24 01:20:54;;;;;;;6.70;6.10;;;;;;;7.96;67.07;100560.13;5079983;28;20181;-73
2022/04/24 01:23:19;;;;;;;8.63;6.87;;;;;;;7.95;67.84;100553.19;5080493;28;20789;-72
2022/04/24 01:25:45;;;;;;;7.17;6.47;;;;;;;7.52;67.66;100553.28;5080333;28;20526;-71
2022/04/24 01:28:10;;;;;;;7.47;6.77;;;;;;;7.85;67.76;100556.47;5080442;28;20501;-72
2022/04/24 01:30:36;;;;;;;8.93;6.80;;;;;;;7.54;68.47;100550.72;5080328;28;20487;-72
2022/04/24 01:33:01;;;;;;;10.03;6.63;;;;;;;7.97;66.79;100561.88;5080062;28;20169;-72
2022/04/24 01:35:27;;;;;;;7.33;6.63;;;;;;;7.66;67.80;100563.91;5080330;28;20169;-72
2022/04/24 01:37:55;;;;;;;13.37;7.83;;;;;;;7.75;68.10;100556.31;5079430;28;20213;-72
2022/04/24 01:40:20;;;;;;;8.20;6.70;;;;;;;7.79;66.66;100556.34;5079970;28;20165;-72
2022/04/24 01:42:46;;;;;;;6.87;5.97;;;;;;;7.48;68.28;100551.50;5080141;28;20403;-72
2022/04/24 01:45:11;;;;;;;7.80;6.80;;;;;;;7.70;67.40;100555.34;5079907;28;20180;-72
2022/04/24 01:47:36;;;;;;;6.77;6.10;;;;;;;7.95;66.35;100548.00;5079704;28;20267;-72
2022/04/24 01:50:02;;;;;;;6.83;5.90;;;;;;;7.79;66.25;100541.66;5080156;28;20434;-72
2022/04/24 01:52:27;;;;;;;8.00;5.73;;;;;;;7.30;68.09;100545.94;5079629;28;20169;-73
2022/04/24 01:54:53;;;;;;;6.70;6.00;;;;;;;7.53;68.09;100557.59;5079715;28;20230;-73
2022/04/24 01:57:18;;;;;;;7.20;5.83;;;;;;;7.66;67.35;100548.34;5080065;28;20522;-72
2022/04/24 01:59:43;;;;;;;9.43;6.70;;;;;;;7.51;67.80;100540.25;5079519;28;20228;-72
2022/04/24 02:02:08;;;;;;;7.30;6.10;;;;;;;7.30;68.12;100553.72;5079210;28;20169;-72
2022/04/24 02:04:34;;;;;;;9.17;6.27;;;;;;;7.81;67.46;100533.91;5080175;28;20430;-72
2022/04/24 02:06:59;;;;;;;7.63;5.97;;;;;;;7.33;67.36;100541.66;5079360;28;20169;-72
2022/04/24 02:09:24;;;;;;;8.93;8.03;;;;;;;7.59;67.24;100543.91;5079292;28;20518;-71
2022/04/24 02:11:50;;;;;;;6.23;5.50;;;;;;;7.36;67.49;100546.94;5079418;28;20161;-72
2022/04/24 02:14:15;;;;;;;7.60;6.00;;;;;;;7.30;67.77;100544.19;5079057;28;20177;-73
2022/04/24 02:16:40;;;;;;;6.90;6.03;;;;;;;7.62;66.74;100537.88;5079012;28;20671;-72
2022/04/24 02:19:05;;;;;;;6.43;5.83;;;;;;;7.72;67.51;100534.59;5078900;28;20196;-72
2022/04/24 02:21:31;;;;;;;7.00;6.30;;;;;;;7.49;67.16;100541.97;5078898;28;20193;-71
2022/04/24 02:23:56;;;;;;;7.30;6.60;;;;;;;7.70;67.48;100533.72;5079550;28;20534;-72
2022/04/24 02:26:22;;;;;;;6.53;5.80;;;;;;;7.52;67.22;100531.66;5080859;28;20161;-72
2022/04/24 02:28:47;;;;;;;9.90;5.87;;;;;;;7.65;66.45;100533.63;5078986;28;20556;-72
2022/04/24 02:31:12;;;;;;;9.33;6.20;;;;;;;7.66;66.53;100524.09;5078699;28;20187;-71
2022/04/24 02:33:38;;;;;;;6.77;6.00;;;;;;;7.25;68.15;100531.16;5079495;28;20176;-71
2022/04/24 02:36:03;;;;;;;7.57;5.80;;;;;;;7.72;67.05;100530.28;5078782;28;20546;-72
2022/04/24 02:38:29;;;;;;;7.87;6.10;;;;;;;7.91;66.29;100528.91;5077368;28;20494;-71
2022/04/24 02:40:54;;;;;;;7.43;5.67;;;;;;;7.72;66.12;100513.84;5079001;28;20204;-71
2022/04/24 02:43:20;;;;;;;7.53;5.80;;;;;;;8.12;64.95;100521.44;5077868;28;20173;-71
2022/04/24 02:45:46;;;;;;;5.90;5.30;;;;;;;7.46;66.04;100526.38;5078461;28;20168;-72
2022/04/24 02:48:12;;;;;;;6.90;6.20;;;;;;;7.99;65.51;100521.22;5078941;28;20153;-71
2022/04/24 02:50:39;;;;;;;9.00;5.90;;;;;;;7.67;66.39;100524.16;5078681;28;20438;-72
2022/04/24 02:53:05;;;;;;;6.37;5.73;;;;;;;8.05;66.10;100521.34;5078308;28;20165;-72
2022/04/24 02:55:30;;;;;;;6.37;5.77;;;;;;;7.95;65.80;100526.34;5079078;28;20408;-71
2022/04/24 02:57:55;;;;;;;7.17;6.03;;;;;;;7.55;66.37;100521.31;5078447;28;20193;-72
2022/04/24 03:00:25;;;;;;;6.40;5.60;;;;;;;7.72;66.99;100519.91;5078385;28;20176;-71
2022/04/24 03:02:51;;;;;;;6.60;5.20;;;;;;;7.98;65.88;100514.28;5078957;28;20161;-71
2022/04/24 03:05:19;;;;;;;8.67;6.13;;;;;;;7.24;67.75;100515.56;5078391;28;20450;-71
2022/04/24 03:07:44;;;;;;;6.73;5.80;;;;;;;7.64;66.93;100508.53;5078319;28;20514;-71
2022/04/24 03:10:10;;;;;;;5.83;5.33;;;;;;;7.57;67.35;100512.72;5078991;28;20426;-71
2022/04/24 03:12:36;;;;;;;6.37;5.77;;;;;;;7.65;66.81;100512.00;5077949;28;20202;-70
2022/04/24 03:15:05;;;;;;;6.90;6.30;;;;;;;7.69;67.84;100508.63;5078445;28;20161;-72
2022/04/24 03:17:32;;;;;;;7.07;6.07;;;;;;;7.66;67.34;100503.34;5077496;28;20868;-71
2022/04/24 03:19:58;;;;;;;6.63;5.90;;;;;;;7.32;68.33;100506.22;5077985;28;20792;-71
2022/04/24 03:22:24;;;;;;;8.97;6.03;;;;;;;7.31;68.56;100499.28;5078291;28;20464;-72
2022/04/24 03:24:50;;;;;;;8.40;6.00;;;;;;;7.12;69.05;100504.94;5078111;28;20408;-72
2022/04/24 03:27:15;;;;;;;9.30;6.03;;;;;;;7.35;68.36;100506.28;5078150;28;20423;-71
2022/04/24 03:29:40;;;;;;;6.20;5.40;;;;;;;7.15;69.29;100507.63;5078950;28;20161;-73
2022/04/24 03:32:06;;;;;;;6.90;5.80;;;;;;;7.94;67.10;100499.50;5077835;28;20192;-72
2022/04/24 03:34:31;;;;;;;8.80;5.90;;;;;;;7.29;68.64;100507.88;5077992;28;20169;-73
2022/04/24 03:36:57;;;;;;;8.67;6.03;;;;;;;7.50;67.98;100502.22;5078267;28;20425;-72
2022/04/24 03:39:22;;;;;;;7.40;5.50;;;;;;;7.73;67.23;100500.91;5078115;28;20200;-73
2022/04/24 03:41:47;;;;;;;6.10;5.50;;;;;;;7.28;67.77;100498.34;5077719;28;20472;-72
2022/04/24 03:44:13;;;;;;;6.97;6.27;;;;;;;7.44;68.03;100502.09;5078245;28;20249;-72
2022/04/24 03:46:38;;;;;;;8.23;5.90;;;;;;;7.33;68.56;100496.72;5077922;28;20183;-72
2022/04/24 03:49:03;;;;;;;9.20;6.03;;;;;;;6.94;69.21;100498.56;5077870;28;20165;-72
2022/04/24 03:51:28;;;;;;;6.90;6.00;;;;;;;7.01;69.23;100499.53;5081419;28;20223;-71
2022/04/24 03:53:54;;;;;;;6.47;5.63;;;;;;;7.15;70.35;100497.25;5081917;28;20177;-72
2022/04/24 03:56:19;;;;;;;7.83;6.80;;;;;;;6.69;71.04;100504.94;5081889;28;20172;-71
2022/04/24 03:58:44;;;;;;;6.53;5.70;;;;;;;6.86;70.21;100502.69;5082229;28;20469;-70
2022/04/24 04:01:11;;;;;;;9.03;6.20;;;;;;;7.17;69.51;100509.41;5081485;28;20187;-71
2022/04/24 04:03:36;;;;;;;8.50;6.30;;;;;;;7.11;69.71;100495.44;5081742;28;20560;-71
2022/04/24 04:06:02;;;;;;;6.80;6.10;;;;;;;7.73;68.80;100495.72;5082000;28;20423;-71
2022/04/24 04:08:28;;;;;;;7.83;7.03;;;;;;;7.94;67.37;100494.31;5081773;28;20169;-72
2022/04/24 04:10:54;;;;;;;7.07;6.37;;;;;;;7.23;68.46;100493.94;5081576;28;20169;-70
2022/04/24 04:13:19;;;;;;;7.63;6.70;;;;;;;7.35;68.99;100492.44;5081693;28;20264;-72
2022/04/24 04:15:45;;;;;;;8.37;6.13;;;;;;;6.87;71.34;100496.66;5081283;28;20451;-71
2022/04/24 04:18:10;;;;;;;7.53;6.40;;;;;;;6.38;71.84;100496.47;5080392;28;20229;-72
2022/04/24 04:20:35;;;;;;;8.80;7.23;;;;;;;6.71;72.65;100488.59;5081627;28;20185;-71
2022/04/24 04:23:03;;;;;;;7.70;6.73;;;;;;;6.85;71.54;100490.59;5081142;28;20165;-71
2022/04/24 04:25:28;;;;;;;8.70;6.43;;;;;;;7.48;70.91;100485.75;5081339;28;20172;-71
2022/04/24 04:27:53;;;;;;;9.00;6.50;;;;;;;7.42;70.39;100483.91;5081682;28;20407;-71
2022/04/24 04:30:19;;;;;;;8.97;6.47;;;;;;;7.57;70.12;100485.91;5081259;28;20404;-71
2022/04/24 04:32:44;;;;;;;11.43;7.00;;;;;;;7.44;70.70;100489.13;5081199;28;20199;-72
2022/04/24 04:35:10;;;;;;;8.20;7.10;;;;;;;7.25;71.13;100496.56;5081586;28;20169;-72
2022/04/24 04:37:36;;;;;;;10.63;6.60;;;;;;;7.18;71.97;100497.28;5081367;28;20451;-71
2022/04/24 04:40:06;;;;;;;8.07;6.43;;;;;;;7.50;70.74;100495.31;5081443;28;20169;-71
2022/04/24 04:42:31;;;;;;;10.10;6.80;;;;;;;7.31;71.32;100490.63;5081197;28;20427;-71
2022/04/24 04:44:59;;;;;;;7.60;6.30;;;;;;;7.08;71.97;100494.50;5081041;28;20411;-70
2022/04/24 04:47:24;;;;;;;7.47;6.70;;;;;;;7.70;70.53;100489.63;5081110;28;20483;-70
2022/04/24 04:49:50;;;;;;;8.17;6.53;;;;;;;7.01;72.71;100492.66;5081443;28;20454;-72
2022/04/24 04:52:16;;;;;;;7.47;6.50;;;;;;;6.81;73.67;100500.00;5080737;28;20169;-71
2022/04/24 04:54:41;;;;;;;11.13;7.20;;;;;;;7.37;72.56;100489.03;5080073;28;20820;-71
2022/04/24 04:57:06;;;;;;;8.50;7.53;;;;;;;7.65;71.93;100492.13;5081433;28;20169;-71
2022/04/24 04:59:32;;;;;;;10.90;7.33;;;;;;;7.72;72.21;100504.34;5080949;28;20298;-70
2022/04/24 05:01:57;;;;;;;12.77;6.73;;;;;;;7.08;74.32;100496.25;5079776;28;20172;-71
2022/04/24 05:04:22;;;;;;;7.83;6.93;;;;;;;7.70;72.65;100498.25;5081001;28;20168;-71
2022/04/24 05:06:48;;;;;;;10.00;7.27;;;;;;;7.30;72.86;100505.31;5080745;28;20534;-70
2022/04/24 05:09:13;;;;;;;9.50;6.87;;;;;;;7.17;74.10;100498.13;5080514;28;20306;-70
2022/04/24 05:11:39;;;;;;;10.50;7.40;;;;;;;7.90;72.90;100505.50;5080795;28;20164;-71
2022/04/24 05:14:05;;;;;;;11.73;7.60;;;;;;;7.78;71.88;100503.59;5080388;28;20501;-71
2022/04/24 05:16:30;;;;;;;9.07;7.73;;;;;;;7.78;72.72;100503.59;5080275;28;20491;-70
2022/04/24 05:18:55;;;;;;;8.97;7.87;;;;;;;7.62;72.97;100496.38;5080787;28;20235;-71
2022/04/24 05:21:21;;;;;;;9.70;7.13;;;;;;;7.64;73.10;100500.72;5080228;28;20193;-71
2022/04/24 05:23:48;;;;;;;8.60;7.17;;;;;;;7.69;72.70;100503.44;5080996;28;20576;-71
2022/04/24 05:26:14;;;;;;;8.03;7.20;;;;;;;7.50;73.29;100497.91;5082914;28;20244;-72
2022/04/24 05:28:40;;;;;;;9.23;7.33;;;;;;;7.84;73.24;100498.50;5080184;28;20407;-72
2022/04/24 05:31:05;;;;;;;11.40;7.10;;;;;;;7.60;72.94;100504.13;5079078;28;20488;-69
2022/04/24 05:33:31;;;;;;;9.50;6.80;;;;;;;7.95;71.36;100492.63;5080385;28;20273;-74
2022/04/24 05:35:56;;;;;;;10.27;7.30;;;;;;;8.53;70.56;100490.91;5079873;28;20538;-71
2022/04/24 05:38:22;;;;;;;11.63;6.93;;;;;;;10.49;64.75;100489.41;5079853;28;20205;-68
2022/04/24 05:40:47;;;;;;;8.80;6.07;;;;;;;10.75;63.42;100481.72;5080005;28;20161;-70
2022/04/24 05:43:12;;;;;;;8.03;6.60;;;;;;;11.48;60.38;100489.78;5079680;28;20436;-71
2022/04/24 05:45:37;;;;;;;7.40;6.50;;;;;;;12.67;56.16;100478.44;5079555;28;20176;-70
2022/04/24 05:48:03;;;;;;;6.10;5.50;;;;;;;12.37;55.33;100473.28;5080134;28;20161;-71
2022/04/24 05:50:28;;;;;;;7.53;5.93;;;;;;;11.77;57.79;100488.94;5079501;28;20529;-71
2022/04/24 05:52:55;;;;;;;6.97;6.07;;;;;;;12.07;57.83;100482.00;5078864;28;20188;-71
2022/04/24 05:55:20;;;;;;;9.17;6.10;;;;;;;13.78;52.09;100476.09;5079798;28;20431;-71
2022/04/24 05:57:49;;;;;;;9.83;6.20;;;;;;;13.07;54.22;100473.91;5079260;28;20393;-71
2022/04/24 06:00:16;;;;;;;6.20;5.53;;;;;;;14.33;51.06;100473.88;5079413;28;20215;-70
2022/04/24 06:02:41;;;;;;;6.07;5.30;;;;;;;15.10;47.02;100466.88;5075305;28;20430;-70
2022/04/24 06:05:07;;;;;;;8.43;6.20;;;;;;;15.32;45.23;100467.44;5079095;28;20393;-71
2022/04/24 06:07:32;;;;;;;8.30;5.40;;;;;;;16.05;46.32;100461.06;5061275;28;20460;-71
2022/04/24 06:09:58;;;;;;;6.20;5.60;;;;;;;16.06;45.19;100465.44;5071975;28;20421;-71
2022/04/24 06:12:23;;;;;;;9.07;6.20;;;;;;;15.95;46.16;100461.25;5061643;28;20192;-72
2022/04/24 06:14:48;;;;;;;7.20;6.00;;;;;;;14.00;49.06;100468.06;5059007;28;20181;-71
2022/04/24 06:17:14;;;;;;;7.80;5.50;;;;;;;13.40;49.92;100481.63;5062149;28;20221;-72
2022/04/24 06:19:39;;;;;;;6.13;5.30;;;;;;;13.43;51.04;100477.22;5071888;28;20661;-71
2022/04/24 06:22:05;;;;;;;8.90;6.27;;;;;;;15.07;46.21;100467.81;5072860;28;20236;-71
2022/04/24 06:24:30;;;;;;;7.20;5.23;;;;;;;16.21;44.92;100465.19;5079237;28;20184;-70
2022/04/24 06:26:56;;;;;;;7.73;5.43;;;;;;;18.11;40.45;100452.28;5075710;28;20431;-69
2022/04/24 06:29:21;;;;;;;6.03;5.17;;;;;;;17.03;41.46;100453.03;5076788;28;20169;-68
2022/04/24 06:31:47;;;;;;;7.40;5.40;;;;;;;13.71;49.02;100465.69;5068918;28;20173;-69
2022/04/24 06:34:12;;;;;;;6.53;5.23;;;;;;;14.26;48.13;100459.97;5076125;28;20176;-69
2022/04/24 06:36:38;;;;;;;6.73;5.37;;;;;;;13.93;48.91;100454.13;5078135;28;20219;-68
2022/04/24 06:39:03;;;;;;;5.87;5.03;;;;;;;17.11;42.65;100442.34;5076945;28;20212;-68
2022/04/24 06:41:29;;;;;;;6.90;5.53;;;;;;;17.21;39.87;100437.75;5077310;28;20547;-68
2022/04/24 06:43:55;;;;;;;5.90;5.20;;;;;;;17.02;41.87;100434.66;5076859;28;20177;-68
2022/04/24 06:46:20;;;;;;;5.93;5.33;;;;;;;18.62;38.97;100432.44;5077470;28;20210;-68
2022/04/24 06:48:45;;;;;;;6.07;5.47;;;;;;;18.32;38.66;100435.00;5077456;28;20250;-72
2022/04/24 06:51:10;;;;;;;9.37;4.87;;;;;;;16.49;41.63;100435.69;5078079;28;20425;-69
2022/04/24 06:53:38;;;;;;;6.17;5.50;;;;;;;14.48;44.62;100447.47;5078374;28;20169;-70
2022/04/24 06:56:04;;;;;;;8.43;5.37;;;;;;;14.97;46.10;100438.16;5078798;28;20603;-68
2022/04/24 06:58:29;;;;;;;8.20;4.97;;;;;;;14.04;47.98;100447.94;5078577;28;20537;-70
2022/04/24 07:00:55;;;;;;;6.27;5.50;;;;;;;16.05;43.92;100438.28;5078390;28;20423;-70
2022/04/24 07:03:21;;;;;;;6.83;5.60;;;;;;;16.97;42.23;100433.00;5078030;28;20443;-69
2022/04/24 07:05:47;;;;;;;6.90;5.00;;;;;;;16.64;42.22;100437.16;5078718;28;20446;-71
2022/04/24 07:08:13;;;;;;;5.73;5.13;;;;;;;17.07;41.17;100433.63;5078065;28;20161;-71
2022/04/24 07:10:38;;;;;;;5.37;4.63;;;;;;;15.10;45.03;100440.59;5078175;28;20498;-71
2022/04/24 07:13:04;;;;;;;5.60;4.90;;;;;;;17.10;41.14;100430.06;5078460;28;20180;-70
2022/04/24 07:15:31;;;;;;;8.67;5.33;;;;;;;14.39;46.52;100452.81;5078047;28;20408;-71
2022/04/24 07:17:57;;;;;;;6.83;4.70;;;;;;;16.75;41.15;100437.81;5077859;28;20220;-74
2022/04/24 07:20:23;;;;;;;7.07;5.57;;;;;;;19.40;37.16;100425.69;5078512;28;20411;-74
2022/04/24 07:22:52;;;;;;;5.77;5.20;;;;;;;20.93;33.96;100415.97;5077869;28;20169;-71
2022/04/24 07:25:19;;;;;;;5.40;4.90;;;;;;;20.25;34.82;100426.38;5077635;28;20177;-71
2022/04/24 07:27:45;;;;;;;5.20;4.70;;;;;;;16.03;42.56;100442.69;5078752;28;20422;-71
2022/04/24 07:30:14;;;;;;;5.33;4.83;;;;;;;14.55;44.58;100445.66;5078033;28;20415;-70
2022/04/24 07:33:00;;;;;;;6.43;5.33;;;;;;;14.01;47.16;100448.84;5077846;28;20192;-70
2022/04/24 07:35:34;;;;;;;6.57;5.90;;;;;;;14.49;46.14;100446.59;5077723;28;20423;-71
2022/04/24 07:37:59;;;;;;;5.00;4.50;;;;;;;17.20;40.16;100431.63;5077859;28;20713;-70
2022/04/24 07:40:28;;;;;;;7.10;5.07;;;;;;;15.29;42.97;100443.88;5077820;28;20392;-70
2022/04/24 07:43:02;;;;;;;5.40;4.90;;;;;;;16.91;40.51;100424.34;5077888;28;20175;-70
2022/04/24 07:45:37;;;;;;;5.17;4.70;;;;;;;14.76;45.27;100444.56;5077312;28;20415;-72
2022/04/24 07:48:05;;;;;;;8.23;5.10;;;;;;;17.06;38.89;100426.66;5077920;28;20471;-71
2022/04/24 07:50:33;;;;;;;5.43;4.80;;;;;;;18.58;36.08;100415.81;5078100;28;20418;-71
2022/04/24 07:52:58;;;;;;;5.10;4.60;;;;;;;15.07;42.27;100436.31;5079368;28;20427;-71
2022/04/24 07:55:24;;;;;;;4.80;4.40;;;;;;;16.58;38.83;100422.38;5080806;28;20498;-71
2022/04/24 07:57:52;;;;;;;4.70;4.30;;;;;;;15.87;39.34;100423.72;5078756;28;20165;-71
2022/04/24 08:00:20;;;;;;;4.83;4.43;;;;;;;16.43;38.91;100426.16;5078724;28;20165;-71
2022/04/24 08:02:56;;;;;;;7.07;5.60;;;;;;;14.91;41.60;100445.25;5079034;28;20892;-72
2022/04/24 08:05:26;;;;;;;5.40;4.70;;;;;;;16.09;40.07;100426.81;5079039;28;20684;-71
2022/04/24 08:07:52;;;;;;;4.77;4.37;;;;;;;15.21;41.63;100435.22;5079457;28;20502;-70
2022/04/24 08:10:19;;;;;;;5.40;4.90;;;;;;;14.40;43.89;100443.22;5081830;28;20421;-68
2022/04/24 08:12:44;;;;;;;6.20;4.77;;;;;;;16.33;38.97;100425.50;5081460;28;20457;-68
2022/04/24 08:15:10;;;;;;;5.37;4.40;;;;;;;16.56;39.73;100415.41;5081645;28;20506;-70
2022/04/24 08:17:35;;;;;;;5.40;4.90;;;;;;;16.37;39.85;100417.53;5083178;28;20303;-68
2022/04/24 08:20:02;;;;;;;6.47;5.30;;;;;;;17.44;37.78;100416.13;5082219;28;20169;-69
2022/04/24 08:22:48;;;;;;;7.80;4.70;;;;;;;19.22;35.15;100411.31;5082015;28;20177;-70
2022/04/24 08:25:15;;;;;;;5.63;5.10;;;;;;;17.36;38.28;100421.59;5080880;28;20415;-68
2022/04/24 08:27:41;;;;;;;5.60;5.10;;;;;;;17.43;38.01;100417.91;5079902;28;20419;-69
2022/04/24 08:30:08;;;;;;;5.20;4.70;;;;;;;21.05;32.74;100398.72;5068223;28;20442;-70
2022/04/24 08:32:35;;;;;;;5.47;4.97;;;;;;;18.50;35.91;100418.66;5079438;28;20179;-70
2022/04/24 08:35:01;;;;;;;4.97;4.47;;;;;;;18.04;35.33;100414.66;5080631;28;20407;-69
2022/04/24 08:37:27;;;;;;;5.23;4.73;;;;;;;17.51;36.73;100417.72;5080737;28;20519;-70
2022/04/24 08:39:53;;;;;;;5.40;5.00;;;;;;;15.86;40.75;100421.09;5084635;28;20447;-68
2022/04/24 08:42:21;;;;;;;7.33;4.50;;;;;;;16.60;39.07;100420.59;5083674;28;20411;-69
2022/04/24 08:44:50;;;;;;;5.67;4.97;;;;;;;17.40;37.88;100404.81;5083934;28;20510;-68
2022/04/24 08:47:16;;;;;;;5.10;4.70;;;;;;;17.18;37.06;100407.06;5084519;28;20407;-68
2022/04/24 08:49:42;;;;;;;5.70;4.70;;;;;;;17.54;37.65;100411.50;5086691;28;20741;-69
2022/04/24 08:52:09;;;;;;;5.30;4.80;;;;;;;19.62;33.31;100394.13;5088390;28;20173;-70
2022/04/24 08:54:35;;;;;;;5.40;4.80;;;;;;;21.77;30.81;100386.97;5081743;28;20176;-70
2022/04/24 08:57:00;;;;;;;5.60;5.10;;;;;;;18.56;34.46;100390.34;5069165;28;20423;-72
2022/04/24 08:59:29;;;;;;;5.73;5.23;;;;;;;21.44;30.76;100382.13;5073750;28;20478;-71
2022/04/24 09:01:58;;;;;;;5.33;4.80;;;;;;;21.21;31.12;100391.00;5081193;28;20460;-73
2022/04/24 09:04:24;;;;;;;8.30;5.90;;;;;;;20.27;32.86;100395.44;5082001;28;20697;-74
2022/04/24 09:06:58;;;;;;;10.20;4.90;;;;;;;21.41;30.78;100390.22;5080417;28;20438;-72
2022/04/24 09:09:24;;;;;;;6.97;5.53;;;;;;;17.67;35.61;100402.38;5078870;28;20500;-73
2022/04/24 09:11:50;;;;;;;5.27;4.87;;;;;;;17.46;35.60;100417.81;5061993;28;20478;-72
2022/04/24 09:14:17;;;;;;;5.53;5.00;;;;;;;18.90;33.42;100394.66;5078789;28;20181;-72
2022/04/24 09:16:47;;;;;;;6.63;4.83;;;;;;;21.35;30.05;100393.09;5085878;28;20534;-72
2022/04/24 09:19:20;;;;;;;13.10;5.47;;;;;;;21.58;29.65;100386.03;5083673;28;20466;-72
2022/04/24 09:21:46;;;;;;;5.17;4.67;;;;;;;17.91;36.70;100407.94;5076870;28;20431;-70
2022/04/24 09:24:11;;;;;;;5.40;4.90;;;;;;;16.49;37.62;100406.75;5083095;28;20434;-69
2022/04/24 09:26:37;;;;;;;5.63;4.80;;;;;;;16.53;38.53;100412.84;5082182;28;20542;-70
2022/04/24 09:29:10;;;;;;;5.17;4.77;;;;;;;15.88;39.03;100416.69;5079539;28;20191;-71
2022/04/24 09:31:35;;;;;;;5.60;4.67;;;;;;;15.08;41.23;100416.16;5071548;28;20633;-71
2022/04/24 09:34:01;;;;;;;4.87;4.47;;;;;;;14.93;41.95;100417.22;5080687;28;20436;-72
2022/04/24 09:36:26;;;;;;;5.43;4.97;;;;;;;18.54;35.98;100408.00;5079704;28;20196;-72
2022/04/24 09:38:51;;;;;;;5.70;4.73;;;;;;;17.97;36.19;100392.84;5076390;28;20614;-72
2022/04/24 09:41:19;;;;;;;7.10;4.83;;;;;;;15.80;39.08;100407.19;5071817;28;20190;-71
2022/04/24 09:43:44;;;;;;;4.97;4.57;;;;;;;14.99;40.84;100414.50;5067972;28;20184;-72
2022/04/24 09:46:10;;;;;;;5.83;4.70;;;;;;;16.08;38.33;100398.78;5079896;28;20419;-72
2022/04/24 09:48:35;;;;;;;7.60;5.10;;;;;;;16.31;38.05;100405.38;5066205;28;20181;-72
2022/04/24 09:51:02;;;;;;;5.50;5.00;;;;;;;18.29;36.34;100395.50;5071689;28;20188;-73
2022/04/24 09:53:28;;;;;;;6.53;5.47;;;;;;;17.75;36.18;100395.16;5068686;28;20184;-72
2022/04/24 09:55:54;;;;;;;4.77;4.37;;;;;;;19.39;34.45;100393.13;5072629;28;20420;-72
2022/04/24 09:58:22;;;;;;;5.27;4.77;;;;;;;19.78;34.63;100395.34;5076695;28;20502;-72
2022/04/24 10:00:50;;;;;;;6.00;4.27;;;;;;;17.76;36.93;100399.50;5078587;28;20481;-73
2022/04/24 10:03:17;;;;;;;9.23;4.90;;;;;;;21.35;31.20;100387.78;5077738;28;20442;-72
2022/04/24 10:05:45;;;;;;;7.37;5.13;;;;;;;19.83;33.01;100393.44;5075491;28;20610;-75
2022/04/24 10:08:11;;;;;;;10.03;4.60;;;;;;;18.20;35.49;100398.41;5080286;28;20427;-74
2022/04/24 10:10:37;;;;;;;7.17;5.00;;;;;;;16.55;37.74;100405.75;5062974;28;20687;-74
2022/04/24 10:13:07;;;;;;;5.50;4.90;;;;;;;14.82;41.87;100423.47;5079210;28;20177;-72
2022/04/24 10:15:34;;;;;;;5.43;4.90;;;;;;;14.91;42.18;100414.63;5078367;28;20183;-72
2022/04/24 10:18:21;;;;;;;5.17;4.67;;;;;;;17.17;37.90;100406.22;5073704;28;20478;-73
2022/04/24 10:21:23;;;;;;;6.47;4.80;;;;;;;16.05;38.93;100421.63;5076239;28;20453;-72
2022/04/24 10:23:49;;;;;;;5.10;4.60;;;;;;;14.90;42.26;100412.88;5068696;28;20407;-71
2022/04/24 10:26:19;;;;;;;5.03;4.50;;;;;;;14.70;42.28;100418.41;5074593;28;20428;-71
2022/04/24 10:28:46;;;;;;;5.40;4.90;;;;;;;16.65;39.14;100412.56;5071805;28;20284;-71
2022/04/24 10:31:12;;;;;;;7.63;5.10;;;;;;;17.93;36.52;100408.81;5065733;28;20455;-70
2022/04/24 10:33:39;;;;;;;7.70;4.97;;;;;;;18.17;36.52;100437.16;5073202;28;20447;-72
2022/04/24 10:36:13;;;;;;;5.50;4.97;;;;;;;15.98;40.56;100419.13;5074520;28;20189;-72
2022/04/24 10:38:51;;;;;;;5.20;4.70;;;;;;;16.74;38.00;100430.81;5072033;28;20891;-72
2022/04/24 10:41:20;;;;;;;6.50;4.90;;;;;;;13.60;44.82;100442.19;5077322;28;20495;-71
2022/04/24 10:43:48;;;;;;;5.97;5.37;;;;;;;16.32;40.40;100412.38;5072388;28;20434;-70
2022/04/24 10:46:17;;;;;;;10.00;6.07;;;;;;;18.07;37.01;100413.72;5077209;28;20435;-70
2022/04/24 10:48:43;;;;;;;7.60;5.60;;;;;;;19.38;33.89;100393.19;5073596;28;20458;-71
2022/04/24 10:51:08;;;;;;;8.10;4.90;;;;;;;16.09;40.49;100420.69;5072165;28;20469;-69
2022/04/24 10:53:51;;;;;;;7.93;5.20;;;;;;;15.86;40.97;100421.09;5069826;28;20540;-71
2022/04/24 10:56:16;;;;;;;7.83;5.63;;;;;;;16.63;39.76;100414.38;5074963;28;20242;-70
2022/04/24 10:58:42;;;;;;;7.00;4.90;;;;;;;17.19;39.25;100402.69;5069082;28;20463;-71
2022/04/24 11:01:09;;;;;;;5.80;5.00;;;;;;;14.20;44.20;100414.56;5069739;28;20200;-70
2022/04/24 11:03:42;;;;;;;5.43;4.90;;;;;;;15.71;41.94;100411.66;5077274;28;20419;-70
2022/04/24 11:06:18;;;;;;;5.57;4.57;;;;;;;17.44;38.54;100402.94;5077227;28;20415;-70
2022/04/24 11:08:43;;;;;;;5.43;4.90;;;;;;;15.25;42.47;100418.50;5077445;28;20446;-73
2022/04/24 11:11:12;;;;;;;10.83;5.30;;;;;;;15.18;42.90;100422.13;5077456;28;20422;-74
2022/04/24 11:13:38;;;;;;;8.53;5.30;;;;;;;15.16;43.95;100417.75;5077326;28;20226;-73
2022/04/24 11:16:04;;;;;;;5.53;4.63;;;;;;;16.23;41.42;100409.91;5078473;28;20386;-73
2022/04/24 11:18:30;;;;;;;7.90;4.80;;;;;;;16.24;42.08;100401.13;5077375;28;20455;-73
2022/04/24 11:21:03;;;;;;;7.73;4.87;;;;;;;13.31;47.88;100436.25;5079134;28;20422;-74
2022/04/24 11:23:30;;;;;;;8.00;5.20;;;;;;;14.53;45.61;100418.59;5080248;28;20225;-73
2022/04/24 11:25:56;;;;;;;7.73;5.20;;;;;;;15.81;42.80;100422.03;5079148;28;20424;-74